Time;durP1;ratioP1;P1;durP2;ratioP2;P2;SDS_P1;SDS_P2;PMS_P1;PMS_P2;Temp;Humidity;BMP_temperature;BMP_pressure;BME280_temperature;BME280_humidity;BME280_pressure;Samples;Min_cycle;Max_cycle;Signal;HPM_P1;HPM_P2
2020/12/22 00:02:18;;;;;;;143.65;41.28;;;;;;;;;;8260217;28;20447;-73
2020/12/22 00:06:24;;;;;;;230.25;55.25;;;;;;;;;;8261789;28;20493;-73
2020/12/22 00:10:27;;;;;;;180.32;45.53;;;;;;;;;;8243260;28;20048;-73
2020/12/22 00:14:30;;;;;;;84.70;31.33;;;;;;;;;;8260587;28;20369;-73
2020/12/22 00:18:35;;;;;;;74.35;32.25;;;;;;;;;;8260905;28;20052;-72
2020/12/22 00:22:39;;;;;;;144.18;47.95;;;;;;;;;;8261021;28;20383;-73
2020/12/22 00:26:42;;;;;;;228.57;69.47;;;;;;;;;;8275985;28;20468;-72
2020/12/22 00:30:45;;;;;;;128.40;45.13;;;;;;;;;;8259434;28;20067;-72
2020/12/22 00:34:48;;;;;;;64.03;25.58;;;;;;;;;;8258698;28;20528;-72
2020/12/22 00:38:51;;;;;;;67.05;27.25;;;;;;;;;;8260248;28;20467;-73
2020/12/22 00:42:55;;;;;;;57.50;25.02;;;;;;;;;;8258414;28;20384;-73
2020/12/22 00:46:58;;;;;;;59.85;26.60;;;;;;;;;;8259807;28;20352;-73
2020/12/22 00:51:01;;;;;;;50.42;24.98;;;;;;;;;;8259748;28;20380;-73
2020/12/22 00:55:05;;;;;;;49.08;23.25;;;;;;;;;;8242012;28;20061;-73
2020/12/22 00:59:09;;;;;;;53.22;23.90;;;;;;;;;;8241847;28;20503;-72
2020/12/22 01:03:13;;;;;;;58.45;24.95;;;;;;;;;;8259733;28;20045;-72
2020/12/22 01:07:17;;;;;;;63.22;27.02;;;;;;;;;;8258504;28;20056;-72
2020/12/22 01:11:22;;;;;;;88.55;33.05;;;;;;;;;;8258085;28;20333;-72
2020/12/22 01:15:26;;;;;;;87.10;34.22;;;;;;;;;;8259617;28;20057;-72
2020/12/22 01:19:29;;;;;;;147.93;49.53;;;;;;;;;;8258975;28;20383;-72
2020/12/22 01:23:32;;;;;;;116.43;41.88;;;;;;;;;;8258966;28;20493;-72
2020/12/22 01:27:35;;;;;;;102.45;38.88;;;;;;;;;;8257539;28;20045;-72
2020/12/22 01:31:38;;;;;;;58.63;26.20;;;;;;;;;;8259153;28;20491;-72
2020/12/22 01:35:42;;;;;;;59.75;25.77;;;;;;;;;;8256782;28;20419;-72
2020/12/22 01:39:44;;;;;;;68.13;26.40;;;;;;;;;;8258179;28;20387;-72
2020/12/22 01:44:12;;;;;;;58.58;26.00;;;;;;;;;;8258137;28;20451;-72
2020/12/22 01:48:15;;;;;;;56.28;24.35;;;;;;;;;;8258438;28;20387;-72
2020/12/22 01:52:18;;;;;;;64.05;24.13;;;;;;;;;;8258321;28;20052;-73
2020/12/22 01:56:22;;;;;;;53.03;25.23;;;;;;;;;;8255479;28;20375;-72
2020/12/22 02:00:25;;;;;;;50.00;23.58;;;;;;;;;;8258093;28;20049;-72
2020/12/22 02:04:28;;;;;;;62.40;25.15;;;;;;;;;;8256582;28;20391;-73
2020/12/22 02:08:31;;;;;;;53.92;24.38;;;;;;;;;;8239302;28;20365;-72
2020/12/22 02:12:41;;;;;;;54.88;23.27;;;;;;;;;;8257477;28;20352;-73
2020/12/22 02:16:44;;;;;;;55.05;23.77;;;;;;;;;;8255754;28;20053;-72
2020/12/22 02:21:03;;;;;;;48.28;24.75;;;;;;;;;;8257487;28;20041;-72
2020/12/22 02:25:18;;;;;;;56.15;25.30;;;;;;;;;;8256910;28;20048;-72
2020/12/22 02:29:21;;;;;;;52.75;23.63;;;;;;;;;;8256832;28;20061;-72
2020/12/22 02:33:24;;;;;;;47.78;21.83;;;;;;;;;;8257259;28;20414;-72
2020/12/22 02:37:27;;;;;;;48.33;21.95;;;;;;;;;;8257353;28;20387;-73
2020/12/22 02:41:30;;;;;;;56.28;22.75;;;;;;;;;;8257061;28;20379;-73
2020/12/22 02:45:33;;;;;;;44.75;22.80;;;;;;;;;;8255680;28;20486;-73
2020/12/22 02:49:37;;;;;;;51.95;22.65;;;;;;;;;;8254933;28;20468;-73
2020/12/22 02:53:40;;;;;;;50.22;21.15;;;;;;;;;;8256361;28;20049;-73
2020/12/22 02:57:43;;;;;;;48.92;22.60;;;;;;;;;;8255052;28;20411;-73
2020/12/22 03:01:46;;;;;;;46.95;20.88;;;;;;;;;;8257018;28;20398;-73
2020/12/22 03:05:52;;;;;;;47.92;21.63;;;;;;;;;;8256695;28;20379;-73
2020/12/22 03:09:55;;;;;;;48.60;21.42;;;;;;;;;;8275909;28;20490;-73
2020/12/22 03:13:58;;;;;;;49.95;22.70;;;;;;;;;;8262860;28;20459;-73
2020/12/22 03:18:04;;;;;;;47.72;20.73;;;;;;;;;;8263303;28;20484;-73
2020/12/22 03:22:07;;;;;;;51.00;21.92;;;;;;;;;;8260771;28;20387;-73
2020/12/22 03:26:11;;;;;;;50.13;22.08;;;;;;;;;;8244872;28;20593;-73
2020/12/22 03:30:16;;;;;;;45.47;21.52;;;;;;;;;;8260675;28;20376;-73
2020/12/22 03:34:19;;;;;;;46.92;20.55;;;;;;;;;;8260484;28;20060;-73
2020/12/22 03:38:24;;;;;;;44.80;19.67;;;;;;;;;;8264286;28;20389;-73
2020/12/22 03:42:28;;;;;;;42.28;20.55;;;;;;;;;;8262352;28;20391;-73
2020/12/22 03:46:32;;;;;;;44.92;21.42;;;;;;;;;;8262222;28;20382;-72
2020/12/22 03:50:35;;;;;;;39.65;19.08;;;;;;;;;;8261504;28;20376;-73
2020/12/22 03:54:39;;;;;;;40.30;20.05;;;;;;;;;;8261588;28;20476;-73
2020/12/22 03:58:42;;;;;;;39.45;19.40;;;;;;;;;;8260181;28;20045;-73
2020/12/22 04:02:45;;;;;;;42.92;20.20;;;;;;;;;;8261155;28;20475;-73
2020/12/22 04:06:49;;;;;;;43.90;19.88;;;;;;;;;;8259615;28;20360;-73
2020/12/22 04:10:55;;;;;;;46.53;21.65;;;;;;;;;;8259695;28;20375;-73
2020/12/22 04:14:58;;;;;;;46.25;21.20;;;;;;;;;;8260870;28;20503;-73
2020/12/22 04:19:02;;;;;;;45.15;21.80;;;;;;;;;;8259683;28;20451;-73
2020/12/22 04:23:04;;;;;;;49.55;20.85;;;;;;;;;;8260709;28;20045;-73
2020/12/22 04:27:08;;;;;;;43.30;20.35;;;;;;;;;;8261107;28;20056;-73
2020/12/22 04:31:11;;;;;;;47.00;20.38;;;;;;;;;;8260650;28;20072;-73
2020/12/22 04:35:14;;;;;;;50.47;22.58;;;;;;;;;;8260312;28;20423;-73
2020/12/22 04:39:17;;;;;;;40.63;20.10;;;;;;;;;;8260779;28;20479;-73
2020/12/22 04:43:23;;;;;;;49.03;20.67;;;;;;;;;;8258062;28;20356;-74
2020/12/22 04:47:26;;;;;;;47.70;22.10;;;;;;;;;;8242260;28;20072;-74
2020/12/22 04:51:32;;;;;;;45.22;20.27;;;;;;;;;;8258903;28;20365;-73
2020/12/22 04:55:40;;;;;;;48.10;20.65;;;;;;;;;;8256826;28;20387;-74
2020/12/22 04:59:44;;;;;;;42.80;20.27;;;;;;;;;;8250504;28;21001;-74
2020/12/22 05:03:47;;;;;;;60.35;24.70;;;;;;;;;;8228548;28;20410;-74
2020/12/22 05:07:51;;;;;;;61.10;25.25;;;;;;;;;;8256216;28;20414;-74
2020/12/22 05:11:54;;;;;;;53.40;24.92;;;;;;;;;;8257162;28;20482;-76
2020/12/22 05:15:57;;;;;;;46.05;22.15;;;;;;;;;;8256215;28;20391;-74
2020/12/22 05:20:00;;;;;;;50.85;21.60;;;;;;;;;;8255184;28;20437;-74
2020/12/22 05:24:08;;;;;;;50.92;21.58;;;;;;;;;;8253653;28;20376;-73
2020/12/22 05:28:16;;;;;;;39.63;20.03;;;;;;;;;;8257329;28;20041;-74
2020/12/22 05:32:19;;;;;;;44.45;20.58;;;;;;;;;;8273927;28;20463;-74
2020/12/22 05:36:26;;;;;;;45.63;21.17;;;;;;;;;;8256656;28;20380;-74
2020/12/22 05:40:29;;;;;;;48.25;22.77;;;;;;;;;;8256918;28;20375;-74
2020/12/22 05:44:34;;;;;;;46.58;21.33;;;;;;;;;;8256665;28;20383;-74
2020/12/22 05:48:37;;;;;;;49.58;22.90;;;;;;;;;;8273055;28;20067;-74
2020/12/22 05:52:43;;;;;;;56.35;25.50;;;;;;;;;;8256300;28;20410;-73
2020/12/22 05:56:47;;;;;;;62.28;25.80;;;;;;;;;;8257584;28;20467;-74
2020/12/22 06:00:50;;;;;;;63.65;27.92;;;;;;;;;;8258000;28;20383;-74
2020/12/22 06:04:55;;;;;;;66.93;29.38;;;;;;;;;;8257409;28;20137;-73
2020/12/22 06:08:59;;;;;;;74.40;29.88;;;;;;;;;;8239960;28;20383;-74
2020/12/22 06:13:05;;;;;;;66.07;28.02;;;;;;;;;;8255909;28;20487;-74
2020/12/22 06:17:13;;;;;;;58.47;25.13;;;;;;;;;;8255936;28;20479;-74
2020/12/22 06:21:19;;;;;;;59.35;24.10;;;;;;;;;;8257132;28;20525;-74
2020/12/22 06:25:22;;;;;;;44.17;22.02;;;;;;;;;;8255599;28;20360;-73
2020/12/22 06:29:28;;;;;;;47.53;21.58;;;;;;;;;;8255490;28;20061;-74
2020/12/22 06:33:36;;;;;;;46.42;22.67;;;;;;;;;;8257016;28;20053;-73
2020/12/22 06:37:44;;;;;;;60.17;27.45;;;;;;;;;;8256757;28;20387;-73
2020/12/22 06:41:48;;;;;;;51.17;25.60;;;;;;;;;;8255056;28;20395;-74
2020/12/22 06:45:51;;;;;;;49.03;24.58;;;;;;;;;;8256336;28;20114;-74
2020/12/22 06:50:06;;;;;;;49.40;20.75;;;;;;;;;;8255411;28;20080;-74
2020/12/22 06:54:15;;;;;;;48.83;22.80;;;;;;;;;;8257076;28;20379;-74
2020/12/22 06:58:44;;;;;;;56.13;27.73;;;;;;;;;;8256647;28;20383;-74
2020/12/22 07:02:49;;;;;;;48.83;25.55;;;;;;;;;;8255218;28;20411;-74
2020/12/22 07:07:02;;;;;;;49.20;23.75;;;;;;;;;;8255308;28;20468;-73
2020/12/22 07:11:19;;;;;;;82.57;40.80;;;;;;;;;;8255997;28;20337;-74
2020/12/22 07:15:22;;;;;;;92.10;39.13;;;;;;;;;;8256401;28;20463;-74
2020/12/22 07:19:37;;;;;;;83.50;38.95;;;;;;;;;;8240510;28;20473;-73
2020/12/22 07:23:42;;;;;;;67.85;31.77;;;;;;;;;;8256654;28;20379;-74
2020/12/22 07:27:48;;;;;;;51.60;24.92;;;;;;;;;;8255914;28;20049;-74
2020/12/22 07:31:52;;;;;;;55.60;23.70;;;;;;;;;;8254885;28;20379;-74
2020/12/22 07:35:56;;;;;;;54.38;24.42;;;;;;;;;;8253686;28;20467;-74
2020/12/22 07:40:09;;;;;;;54.55;25.75;;;;;;;;;;8254348;28;20386;-74
2020/12/22 07:44:15;;;;;;;54.67;26.45;;;;;;;;;;8254453;28;20063;-73
2020/12/22 07:48:22;;;;;;;62.38;27.20;;;;;;;;;;8255559;28;20482;-74
2020/12/22 07:52:26;;;;;;;54.97;25.95;;;;;;;;;;8254922;28;20365;-74
2020/12/22 07:56:32;;;;;;;57.33;25.83;;;;;;;;;;8258713;28;20383;-74
2020/12/22 08:00:36;;;;;;;96.82;40.85;;;;;;;;;;8244028;28;20471;-73
2020/12/22 08:04:44;;;;;;;80.63;36.70;;;;;;;;;;8259921;28;20044;-74
2020/12/22 08:09:01;;;;;;;63.42;28.48;;;;;;;;;;8258564;28;20075;-74
2020/12/22 08:13:07;;;;;;;65.25;28.00;;;;;;;;;;8261365;28;20498;-74
2020/12/22 08:17:17;;;;;;;62.17;30.70;;;;;;;;;;8260793;28;20383;-73
2020/12/22 08:21:26;;;;;;;84.43;38.13;;;;;;;;;;8241548;28;20383;-74
2020/12/22 08:25:30;;;;;;;87.15;41.20;;;;;;;;;;8260060;28;20372;-73
2020/12/22 08:29:33;;;;;;;74.63;35.65;;;;;;;;;;8243138;28;20349;-74
2020/12/22 08:33:39;;;;;;;48.95;22.42;;;;;;;;;;8260124;28;20502;-74
2020/12/22 08:37:45;;;;;;;46.22;20.48;;;;;;;;;;8243628;28;20376;-74
2020/12/22 08:41:55;;;;;;;45.05;19.88;;;;;;;;;;8260868;28;20383;-73
2020/12/22 08:45:58;;;;;;;46.58;19.90;;;;;;;;;;8259253;28;20410;-75
2020/12/22 08:50:10;;;;;;;54.72;18.67;;;;;;;;;;8260003;28;20456;-74
2020/12/22 08:54:14;;;;;;;39.45;16.67;;;;;;;;;;8259839;28;20486;-75
2020/12/22 08:58:18;;;;;;;35.30;15.25;;;;;;;;;;8259847;28;20406;-72
2020/12/22 09:02:29;;;;;;;39.85;17.10;;;;;;;;;;8259944;28;20485;-74
2020/12/22 09:06:37;;;;;;;42.30;18.75;;;;;;;;;;8258947;28;20533;-74
2020/12/22 09:10:54;;;;;;;45.10;19.25;;;;;;;;;;8259730;28;20056;-74
2020/12/22 09:14:59;;;;;;;57.13;26.67;;;;;;;;;;8257446;28;20376;-74
2020/12/22 09:19:06;;;;;;;79.80;34.30;;;;;;;;;;8258220;28;20398;-74
2020/12/22 09:23:11;;;;;;;64.28;29.08;;;;;;;;;;8259211;28;20067;-74
2020/12/22 09:27:15;;;;;;;60.15;29.40;;;;;;;;;;8259078;28;20064;-74
2020/12/22 09:31:28;;;;;;;65.60;30.23;;;;;;;;;;8256988;28;20364;-74
2020/12/22 09:35:31;;;;;;;36.72;18.85;;;;;;;;;;8258606;28;20057;-73
2020/12/22 09:39:36;;;;;;;32.92;16.63;;;;;;;;;;8258375;28;20056;-74
2020/12/22 09:43:39;;;;;;;30.60;14.15;;;;;;;;;;8258095;28;20460;-74
2020/12/22 09:47:58;;;;;;;24.97;13.53;;;;;;;;;;8258391;28;20052;-74
2020/12/22 09:52:00;;;;;;;34.85;16.73;;;;;;;;;;8258366;28;20045;-74
2020/12/22 09:56:04;;;;;;;33.88;16.10;;;;;;;;;;8258273;28;20463;-75
2020/12/22 10:00:07;;;;;;;32.83;14.82;;;;;;;;;;8255876;28;20079;-75
2020/12/22 10:04:15;;;;;;;43.83;19.67;;;;;;;;;;8257397;28;20162;-76
2020/12/22 10:08:19;;;;;;;30.50;13.77;;;;;;;;;;8256135;28;20489;-75
2020/12/22 10:12:22;;;;;;;60.08;26.02;;;;;;;;;;8272005;28;20067;-75
2020/12/22 10:16:25;;;;;;;53.58;24.75;;;;;;;;;;8257086;28;20053;-74
2020/12/22 10:20:28;;;;;;;50.60;23.42;;;;;;;;;;8255193;28;20380;-75
2020/12/22 10:24:31;;;;;;;65.10;29.75;;;;;;;;;;8257335;28;20045;-74
2020/12/22 10:28:40;;;;;;;42.03;21.45;;;;;;;;;;8256718;28;20131;-74
2020/12/22 10:32:44;;;;;;;37.88;17.20;;;;;;;;;;8256887;28;20075;-75
2020/12/22 10:36:47;;;;;;;66.80;30.63;;;;;;;;;;8255089;28;20378;-75
2020/12/22 10:40:52;;;;;;;54.22;25.38;;;;;;;;;;8255373;28;20410;-74
2020/12/22 10:44:57;;;;;;;67.55;29.63;;;;;;;;;;8256102;28;20411;-74
2020/12/22 10:49:01;;;;;;;59.08;29.20;;;;;;;;;;8256986;28;20510;-74
2020/12/22 10:53:08;;;;;;;53.58;24.25;;;;;;;;;;8255344;28;20384;-74
2020/12/22 10:57:11;;;;;;;57.92;25.38;;;;;;;;;;8238421;28;20353;-75
2020/12/22 11:01:15;;;;;;;78.85;35.92;;;;;;;;;;8256810;28;20660;-75
2020/12/22 11:06:04;;;;;;;64.00;32.28;;;;;;;;;;8256152;28;20083;-75
2020/12/22 11:09:47;;;;;;;64.47;30.15;;;;;;;;;;8256170;28;20471;-75
2020/12/22 11:13:50;;;;;;;86.65;42.72;;;;;;;;;;8256788;28;20460;-75
2020/12/22 11:17:53;;;;;;;84.75;41.22;;;;;;;;;;8254844;28;20383;-75
2020/12/22 11:21:57;;;;;;;75.43;35.78;;;;;;;;;;8254554;28;20063;-75
2020/12/22 11:26:00;;;;;;;67.82;32.35;;;;;;;;;;8256405;28;20414;-75
2020/12/22 11:30:05;;;;;;;66.45;32.00;;;;;;;;;;8273903;28;20371;-75
2020/12/22 11:34:08;;;;;;;69.95;31.92;;;;;;;;;;8261300;28;20477;-75
2020/12/22 11:38:11;;;;;;;79.25;36.35;;;;;;;;;;8260510;28;20391;-75
2020/12/22 11:42:14;;;;;;;85.15;40.70;;;;;;;;;;8228091;28;20379;-75
2020/12/22 11:46:17;;;;;;;83.53;36.65;;;;;;;;;;8262438;28;20045;-74
2020/12/22 11:50:20;;;;;;;74.95;35.72;;;;;;;;;;8261824;28;20383;-74
2020/12/22 11:54:25;;;;;;;81.63;36.15;;;;;;;;;;8261401;28;20926;-74
2020/12/22 11:58:28;;;;;;;85.32;36.50;;;;;;;;;;8261298;28;20075;-75
2020/12/22 12:02:31;;;;;;;100.80;43.45;;;;;;;;;;8261975;28;20075;-74
2020/12/22 12:06:34;;;;;;;89.60;36.83;;;;;;;;;;8261727;28;20501;-74
2020/12/22 12:10:38;;;;;;;76.10;32.05;;;;;;;;;;8260833;28;20494;-74
2020/12/22 12:14:41;;;;;;;81.05;32.03;;;;;;;;;;8261206;28;20048;-73
2020/12/22 12:18:46;;;;;;;129.65;47.45;;;;;;;;;;8261182;28;20052;-74
2020/12/22 12:22:49;;;;;;;129.35;48.53;;;;;;;;;;8260943;28;20045;-74
2020/12/22 12:26:52;;;;;;;133.02;56.35;;;;;;;;;;8260951;28;20485;-74
2020/12/22 12:30:55;;;;;;;113.82;49.80;;;;;;;;;;8260663;28;20374;-74
2020/12/22 12:34:58;;;;;;;98.45;45.80;;;;;;;;;;8259178;28;20067;-73
2020/12/22 12:39:02;;;;;;;83.15;39.90;;;;;;;;;;8260259;28;20518;-74
2020/12/22 12:43:05;;;;;;;84.18;34.90;;;;;;;;;;8257211;28;20359;-74
2020/12/22 12:47:13;;;;;;;105.33;42.73;;;;;;;;;;8258596;28;20478;-73
2020/12/22 12:51:16;;;;;;;99.45;44.67;;;;;;;;;;8258153;28;20841;-75
2020/12/22 12:55:19;;;;;;;89.15;40.72;;;;;;;;;;8274483;28;20049;-75
2020/12/22 12:59:22;;;;;;;107.53;52.22;;;;;;;;;;8259450;28;20076;-75
2020/12/22 13:03:25;;;;;;;166.98;77.65;;;;;;;;;;8259618;28;20083;-75
2020/12/22 13:07:29;;;;;;;179.65;74.55;;;;;;;;;;8259807;28;20475;-75
2020/12/22 13:11:34;;;;;;;120.40;50.90;;;;;;;;;;8259445;28;20385;-75
2020/12/22 13:15:38;;;;;;;126.60;57.60;;;;;;;;;;8259130;28;20381;-74
2020/12/22 13:19:41;;;;;;;107.97;54.45;;;;;;;;;;8259628;28;20479;-75
2020/12/22 13:23:48;;;;;;;95.75;50.22;;;;;;;;;;8258826;28;20486;-75
2020/12/22 13:28:07;;;;;;;85.50;45.63;;;;;;;;;;8257106;28;20483;-75
2020/12/22 13:32:13;;;;;;;111.53;53.38;;;;;;;;;;8258635;28;20560;-75
2020/12/22 13:36:17;;;;;;;90.75;42.75;;;;;;;;;;8256867;28;20368;-75
2020/12/22 13:40:40;;;;;;;78.07;37.97;;;;;;;;;;8258438;28;20521;-75
2020/12/22 13:44:44;;;;;;;92.53;43.60;;;;;;;;;;8258810;28;20497;-74
2020/12/22 13:48:47;;;;;;;69.70;35.13;;;;;;;;;;8256517;28;20076;-75
2020/12/22 13:52:50;;;;;;;70.47;34.47;;;;;;;;;;8255799;28;20045;-75
2020/12/22 13:56:53;;;;;;;65.65;32.35;;;;;;;;;;8257736;28;20387;-75
2020/12/22 14:00:57;;;;;;;71.28;36.05;;;;;;;;;;8256726;28;20057;-75
2020/12/22 14:05:01;;;;;;;64.28;34.42;;;;;;;;;;8239489;28;20359;-75
2020/12/22 14:09:04;;;;;;;58.00;31.80;;;;;;;;;;8257596;28;20091;-75
2020/12/22 14:13:07;;;;;;;45.58;25.48;;;;;;;;;;8239475;28;20455;-74
2020/12/22 14:17:11;;;;;;;47.55;24.70;;;;;;;;;;8255600;28;20471;-75
2020/12/22 14:21:22;;;;;;;525.58;164.90;;;;;;;;;;8257842;28;20479;-75
2020/12/22 14:25:25;;;;;;;340.02;162.73;;;;;;;;;;8256987;28;20056;-75
2020/12/22 14:29:28;;;;;;;511.05;292.85;;;;;;;;;;8255468;28;20090;-75
2020/12/22 14:33:31;;;;;;;267.80;76.50;;;;;;;;;;8256842;28;20498;-75
2020/12/22 14:37:35;;;;;;;127.93;47.28;;;;;;;;;;8256411;28;20419;-75
2020/12/22 14:41:38;;;;;;;80.47;31.92;;;;;;;;;;8271278;28;20482;-76
2020/12/22 14:45:46;;;;;;;55.03;24.23;;;;;;;;;;8257058;28;20497;-75
2020/12/22 14:49:49;;;;;;;56.88;25.85;;;;;;;;;;8256934;28;20049;-75
2020/12/22 14:53:54;;;;;;;36.00;16.27;;;;;;;;;;8255293;28;20364;-75
2020/12/22 14:57:57;;;;;;;48.88;20.88;;;;;;;;;;8256418;28;20375;-75
2020/12/22 15:02:01;;;;;;;29.92;13.40;;;;;;;;;;8253796;28;20479;-74
2020/12/22 15:06:04;;;;;;;32.78;15.73;;;;;;;;;;8261663;28;20468;-74
2020/12/22 15:10:08;;;;;;;27.27;13.45;;;;;;;;;;8261812;28;20515;-75
2020/12/22 15:14:11;;;;;;;30.70;16.23;;;;;;;;;;8260744;28;20049;-76
2020/12/22 15:18:14;;;;;;;22.05;12.38;;;;;;;;;;8245864;28;20460;-75
2020/12/22 15:22:17;;;;;;;43.25;23.17;;;;;;;;;;8262673;28;20379;-76
2020/12/22 15:26:20;;;;;;;34.00;18.20;;;;;;;;;;8261505;28;20345;-75
2020/12/22 15:30:24;;;;;;;66.68;35.17;;;;;;;;;;8262681;28;20057;-75
2020/12/22 15:34:28;;;;;;;80.32;38.00;;;;;;;;;;8260279;28;20455;-75
2020/12/22 15:38:32;;;;;;;60.40;24.35;;;;;;;;;;8259935;28;20080;-74
2020/12/22 15:42:38;;;;;;;43.50;18.73;;;;;;;;;;8185679;28;20387;-75
2020/12/22 15:46:45;;;;;;;51.65;19.50;;;;;;;;;;8226296;28;20472;-74
2020/12/22 15:50:48;;;;;;;47.10;17.58;;;;;;;;;;8226150;28;20375;-74
2020/12/22 15:54:51;;;;;;;33.45;15.80;;;;;;;;;;8219824;28;20488;-75
2020/12/22 15:58:56;;;;;;;35.92;19.85;;;;;;;;;;8227851;28;20380;-77
2020/12/22 16:02:59;;;;;;;38.25;17.75;;;;;;;;;;8231572;28;20065;-75
2020/12/22 16:07:02;;;;;;;43.47;22.48;;;;;;;;;;8246377;28;20049;-75
2020/12/22 16:11:11;;;;;;;43.88;23.98;;;;;;;;;;8225619;28;20072;-75
2020/12/22 16:15:24;;;;;;;35.58;17.20;;;;;;;;;;8188417;28;20367;-75
2020/12/22 16:19:29;;;;;;;64.47;29.83;;;;;;;;;;8193075;28;20365;-74
2020/12/22 16:23:34;;;;;;;47.15;22.48;;;;;;;;;;8170401;28;20353;-73
2020/12/22 16:27:37;;;;;;;50.95;20.48;;;;;;;;;;8213993;28;20510;-75
2020/12/22 16:31:41;;;;;;;43.17;19.35;;;;;;;;;;8221419;28;20076;-75
2020/12/22 16:35:45;;;;;;;42.38;22.27;;;;;;;;;;8222168;28;20419;-74
2020/12/22 16:39:50;;;;;;;47.67;22.95;;;;;;;;;;8223201;28;20376;-74
2020/12/22 16:43:54;;;;;;;36.55;16.92;;;;;;;;;;8221166;28;20072;-74
2020/12/22 16:47:57;;;;;;;44.60;21.35;;;;;;;;;;8226553;28;20357;-74
2020/12/22 16:52:02;;;;;;;35.30;16.98;;;;;;;;;;8258065;28;20494;-75
2020/12/22 16:56:05;;;;;;;39.17;19.60;;;;;;;;;;8257323;28;20479;-74
2020/12/22 17:00:22;;;;;;;53.95;22.17;;;;;;;;;;8259396;28;20376;-75
2020/12/22 17:04:25;;;;;;;41.97;20.08;;;;;;;;;;8257982;28;20057;-74
2020/12/22 17:08:29;;;;;;;57.72;25.25;;;;;;;;;;8241989;28;20482;-74
2020/12/22 17:12:35;;;;;;;72.80;30.73;;;;;;;;;;8239766;28;20379;-75
2020/12/22 17:16:38;;;;;;;74.03;32.83;;;;;;;;;;8258993;28;20349;-74
2020/12/22 17:20:42;;;;;;;53.65;25.67;;;;;;;;;;8256017;28;20415;-74
2020/12/22 17:24:48;;;;;;;63.00;23.73;;;;;;;;;;8238494;28;20045;-75
2020/12/22 17:28:54;;;;;;;55.08;22.83;;;;;;;;;;8258752;28;20480;-75
2020/12/22 17:32:58;;;;;;;68.82;30.40;;;;;;;;;;8287508;28;20439;-75
2020/12/22 17:37:03;;;;;;;52.30;24.77;;;;;;;;;;8285873;28;20501;-75
2020/12/22 17:41:07;;;;;;;200.88;58.47;;;;;;;;;;8286738;28;20372;-76
2020/12/22 17:45:13;;;;;;;132.32;44.20;;;;;;;;;;8285736;28;20418;-76
2020/12/22 17:49:17;;;;;;;117.25;35.10;;;;;;;;;;8287234;28;20071;-75
2020/12/22 17:53:22;;;;;;;167.13;52.63;;;;;;;;;;8286481;28;20387;-75
2020/12/22 17:57:26;;;;;;;93.80;62.78;;;;;;;;;;8286420;28;20558;-74
2020/12/22 18:01:34;;;;;;;152.05;56.90;;;;;;;;;;8284219;28;20079;-74
2020/12/22 18:05:40;;;;;;;245.05;84.70;;;;;;;;;;8257477;28;20482;-75
2020/12/22 18:09:46;;;;;;;154.98;50.13;;;;;;;;;;8257251;28;20399;-75
2020/12/22 18:13:50;;;;;;;159.80;47.92;;;;;;;;;;8257372;28;20357;-75
2020/12/22 18:17:54;;;;;;;131.32;40.22;;;;;;;;;;8255324;28;20049;-75
2020/12/22 18:22:00;;;;;;;107.07;38.08;;;;;;;;;;8256656;28;20368;-75
2020/12/22 18:26:07;;;;;;;43.17;22.90;;;;;;;;;;8255588;28;20463;-74
2020/12/22 18:30:11;;;;;;;139.00;40.22;;;;;;;;;;8254210;28;20053;-73
2020/12/22 18:34:15;;;;;;;155.68;50.08;;;;;;;;;;8253452;28;20505;-75
2020/12/22 18:38:23;;;;;;;77.85;30.92;;;;;;;;;;8256223;28;20471;-74
2020/12/22 18:42:30;;;;;;;57.67;25.33;;;;;;;;;;8256650;28;20053;-74
2020/12/22 18:46:36;;;;;;;53.20;26.83;;;;;;;;;;8252560;28;20569;-73
2020/12/22 18:50:41;;;;;;;68.75;28.48;;;;;;;;;;8235041;28;20509;-74
2020/12/22 18:54:45;;;;;;;59.28;31.13;;;;;;;;;;8268811;28;20483;-74
2020/12/22 18:58:51;;;;;;;98.43;40.83;;;;;;;;;;8251955;28;20360;-74
2020/12/22 19:02:55;;;;;;;29.80;15.43;;;;;;;;;;8253101;28;20352;-74
2020/12/22 19:06:58;;;;;;;21.00;11.93;;;;;;;;;;8236036;28;20527;-74
2020/12/22 19:11:06;;;;;;;25.40;13.38;;;;;;;;;;8252638;28;20483;-75
2020/12/22 19:15:10;;;;;;;25.23;10.30;;;;;;;;;;8172984;28;20384;-75
2020/12/22 19:19:15;;;;;;;33.83;16.80;;;;;;;;;;8219371;28;20375;-75
2020/12/22 19:23:21;;;;;;;32.25;14.55;;;;;;;;;;8186825;28;20500;-75
2020/12/22 19:27:24;;;;;;;34.28;17.25;;;;;;;;;;8187487;28;20061;-74
2020/12/22 19:31:28;;;;;;;87.68;36.50;;;;;;;;;;8219392;28;20057;-74
2020/12/22 19:35:31;;;;;;;33.90;16.83;;;;;;;;;;8186916;28;20107;-74
2020/12/22 19:39:35;;;;;;;55.40;20.83;;;;;;;;;;8171307;28;20372;-74
2020/12/22 19:43:43;;;;;;;47.38;20.52;;;;;;;;;;8219643;28;20064;-74
2020/12/22 19:47:55;;;;;;;39.75;15.93;;;;;;;;;;8217645;28;20464;-74
2020/12/22 19:52:00;;;;;;;32.40;13.73;;;;;;;;;;8223100;28;20459;-74
2020/12/22 19:56:05;;;;;;;44.60;19.77;;;;;;;;;;8259837;28;20375;-74
2020/12/22 20:00:17;;;;;;;50.67;20.58;;;;;;;;;;8242290;28;20378;-74
2020/12/22 20:04:22;;;;;;;40.10;18.55;;;;;;;;;;8260123;28;20349;-74
2020/12/22 20:08:25;;;;;;;32.40;16.02;;;;;;;;;;8243780;28;20040;-74
2020/12/22 20:12:28;;;;;;;24.27;13.15;;;;;;;;;;8259489;28;20064;-75
2020/12/22 20:16:32;;;;;;;32.88;16.05;;;;;;;;;;8228133;28;20072;-74
2020/12/22 20:20:37;;;;;;;27.55;13.68;;;;;;;;;;8227892;28;20464;-75
2020/12/22 20:24:44;;;;;;;26.17;14.30;;;;;;;;;;8228569;28;20484;-75
2020/12/22 20:28:51;;;;;;;;;;;;;;;;;;8228100;28;20472;-74
2020/12/22 20:32:54;;;;;;;28.58;14.38;;;;;;;;;;8209905;28;19921;-75
2020/12/22 20:36:58;;;;;;;35.60;15.80;;;;;;;;;;8242379;28;20460;-74
2020/12/22 20:41:09;;;;;;;38.55;17.05;;;;;;;;;;8227954;28;20499;-74
2020/12/22 20:45:12;;;;;;;41.25;17.95;;;;;;;;;;8259011;28;20491;-74
2020/12/22 20:49:15;;;;;;;40.53;20.40;;;;;;;;;;8228138;28;20464;-74
2020/12/22 20:53:20;;;;;;;46.80;22.25;;;;;;;;;;8227976;28;20479;-75
2020/12/22 20:57:23;;;;;;;43.35;21.13;;;;;;;;;;8242434;28;20502;-74
2020/12/22 21:01:26;;;;;;;38.58;19.77;;;;;;;;;;8225768;28;20472;-75
2020/12/22 21:05:33;;;;;;;42.70;18.50;;;;;;;;;;8227157;28;20380;-74
2020/12/22 21:09:35;;;;;;;40.10;20.75;;;;;;;;;;8227716;28;20379;-74
2020/12/22 21:13:40;;;;;;;32.88;16.60;;;;;;;;;;8246058;28;20456;-75
2020/12/22 21:17:43;;;;;;;133.38;36.80;;;;;;;;;;8259623;28;20353;-75
2020/12/22 21:21:47;;;;;;;246.88;57.65;;;;;;;;;;8255169;28;20124;-76
2020/12/22 21:25:51;;;;;;;246.60;53.85;;;;;;;;;;8255324;28;20486;-76
2020/12/22 21:29:54;;;;;;;278.35;52.90;;;;;;;;;;8254503;28;20345;-76
2020/12/22 21:33:58;;;;;;;364.17;69.43;;;;;;;;;;8253759;28;20395;-75
2020/12/22 21:38:01;;;;;;;244.88;48.30;;;;;;;;;;8254307;28;20398;-76
2020/12/22 21:42:04;;;;;;;248.07;53.78;;;;;;;;;;8254679;28;20522;-75
2020/12/22 21:46:07;;;;;;;512.67;113.47;;;;;;;;;;8254635;28;20482;-75
2020/12/22 21:50:10;;;;;;;302.90;62.45;;;;;;;;;;8255136;28;20382;-75
2020/12/22 21:54:16;;;;;;;369.70;74.88;;;;;;;;;;8270655;28;20496;-76
2020/12/22 21:58:20;;;;;;;415.30;85.68;;;;;;;;;;8285033;28;20455;-76
2020/12/22 22:02:25;;;;;;;243.57;51.28;;;;;;;;;;8256115;28;20382;-75
2020/12/22 22:06:28;;;;;;;404.52;84.97;;;;;;;;;;8258060;28;20456;-74
2020/12/22 22:10:32;;;;;;;440.77;93.63;;;;;;;;;;8257695;28;20371;-75
2020/12/22 22:14:35;;;;;;;327.92;68.57;;;;;;;;;;8256994;28;20575;-75
2020/12/22 22:18:40;;;;;;;283.60;58.53;;;;;;;;;;8256359;28;20467;-75
2020/12/22 22:22:44;;;;;;;259.95;56.55;;;;;;;;;;8255698;28;20467;-74
2020/12/22 22:26:50;;;;;;;333.55;67.25;;;;;;;;;;8254984;28;20067;-74
2020/12/22 22:30:53;;;;;;;180.30;41.00;;;;;;;;;;8256978;28;20393;-75
2020/12/22 22:34:56;;;;;;;339.45;68.40;;;;;;;;;;8257296;28;20053;-75
2020/12/22 22:38:59;;;;;;;261.50;57.85;;;;;;;;;;8256489;28;20422;-75
2020/12/22 22:43:05;;;;;;;275.45;61.85;;;;;;;;;;8256936;28;20349;-75
2020/12/22 22:47:08;;;;;;;184.50;40.15;;;;;;;;;;8238057;28;20475;-75
2020/12/22 22:51:12;;;;;;;172.70;39.90;;;;;;;;;;8256636;28;20475;-75
2020/12/22 22:55:16;;;;;;;232.10;46.50;;;;;;;;;;8238375;28;20487;-75
2020/12/22 22:59:19;;;;;;;405.58;84.60;;;;;;;;;;8255885;28;20459;-75
2020/12/22 23:03:24;;;;;;;228.68;52.50;;;;;;;;;;8256182;28;20486;-75
2020/12/22 23:07:28;;;;;;;181.30;41.83;;;;;;;;;;8257027;28;20709;-75
2020/12/22 23:11:31;;;;;;;358.48;77.30;;;;;;;;;;8256509;28;20364;-75
2020/12/22 23:15:34;;;;;;;129.48;33.42;;;;;;;;;;8254767;28;20372;-74
2020/12/22 23:19:37;;;;;;;177.80;42.55;;;;;;;;;;8256604;28;20464;-75
2020/12/22 23:23:40;;;;;;;183.82;42.47;;;;;;;;;;8254550;28;20063;-74
2020/12/22 23:27:43;;;;;;;201.98;45.80;;;;;;;;;;8260326;28;20490;-75
2020/12/22 23:31:51;;;;;;;223.90;49.78;;;;;;;;;;8262816;28;20052;-74
2020/12/22 23:35:55;;;;;;;89.97;28.02;;;;;;;;;;8260573;28;20414;-75
2020/12/22 23:39:58;;;;;;;271.45;59.00;;;;;;;;;;8260673;28;20410;-74